Skip Navigation Linkwww.weather.gov 
NOAA logo - Select to go to the NOAA homepage National Weather Service
 Headquarters Office   NWS logo
NWS Office of the Chief Information Officer/Telecommunication Operations Center
 
   

Current Weather Conditions:
Station name not available

(

Conditions at

2022.11.30 0830 UTC
Wind from the NE (050 degrees) at 5 MPH (4 KT)
Visibility greater than 7 mile(s)
Sky conditions partly cloudy
Weather Cumulonimbus clouds observed
Temperature 86 F (30 C)
Heat index 99.3 F (37.4 C)
Dew Point 78 F (26 C)
Relative Humidity 79%
Pressure (altimeter) 29.68 in. Hg (1005 hPa)
ob WARR 300830Z 05004KT 9999 SCT020CB 30/26 Q1005 NOSIG METAR WIDD 300830Z 05012KT 9999 SCT014 31/24 Q1008 NOSIG

24 Hour Summary

Time
EST (UTC)
Temperature
F (C)
Dew Point
F (C)
Pressure
Inches (hPa)
Wind
MPH
Weather
Latest 3 AM (8) Nov 30 86 (30) 78 (26) 29.68 (1005) NE 5
2 AM (7) Nov 30 84 (29) 77 (25) 29.68 (1005) WNW 3
1 AM (6) Nov 30 87 (31) 78 (26) 29.71 (1006) NNE 7
Midnight (5) Nov 30 86 (30) 78 (26) 29.74 (1007) NE 7
11 PM (4) Nov 29 86 (30) 80 (27) 29.74 (1007) ENE 7
10 PM (3) Nov 29 86 (30) 78 (26) 29.77 (1008) E 7
9 PM (2) Nov 29 84 (29) 78 (26) 29.77 (1008) ESE 9
8 PM (1) Nov 29 82 (28) 77 (25) 29.80 (1009) ESE 8
7 PM (0) Nov 29 80 (27) 77 (25) 29.80 (1009) Variable 2
6 PM (23) Nov 29 77 (25) 77 (25) 29.80 (1009) NW 3 haze
5 PM (22) Nov 29 75 (24) 75 (24) 29.77 (1008) W 6 mist
4 PM (21) Nov 29 77 (25) 77 (25) 29.77 (1008) SW 2 mist
3 PM (20) Nov 29 75 (24) 75 (24) 29.74 (1007) WSW 5 mist
2 PM (19) Nov 29 75 (24) 75 (24) 29.77 (1008) W 5 mist
1 PM (18) Nov 29 77 (25) 77 (25) 29.77 (1008) W 7 mist
Noon (17) Nov 29 77 (25) 77 (25) 29.77 (1008) WSW 5
11 AM (16) Nov 29 77 (25) 75 (24) 29.77 (1008) S 5 mist
10 AM (15) Nov 29 77 (25) 77 (25) 29.80 (1009) WSW 2 mist
9 AM (14) Nov 29 77 (25) 77 (25) 29.77 (1008) NNW 3 mist
8 AM (13) Nov 29 77 (25) 77 (25) 29.80 (1009) WNW 6 mist
7 AM (12) Nov 29 77 (25) 77 (25) 29.80 (1009) WSW 7 mist
6 AM (11) Nov 29 77 (25) 77 (25) 29.74 (1007) Variable 2
5 AM (10) Nov 29 77 (25) 77 (25) 29.71 (1006) S 3 light rain
Oldest 4 AM (9) Nov 29 77 (25) 77 (25) 29.71 (1006) SSE 5 light rain
Time
EST (UTC)
Temperature
F(C)
Dew Point
F(C)
Pressure
Inches(hPa)
Wind
(MPH)
Weather

The information presented here is taken from products produced by the U.S. National Weather Service and other national and international agencies




US Dept of Commerce
National Oceanic and Atmospheric Administration
National Weather Service
1325 East West Highway
Silver Spring, MD 20910
Page Author: NWS Internet Services Team
Disclaimer
Feedback
Privacy Notice
Credits